Time;durP1;ratioP1;P1;durP2;ratioP2;P2;SDS_P1;SDS_P2;PMS_P1;PMS_P2;Temp;Humidity;BMP_temperature;BMP_pressure;BME280_temperature;BME280_humidity;BME280_pressure;Samples;Min_cycle;Max_cycle;Signal;HPM_P1;HPM_P2
2023/12/24 00:00:18;;;;;;;7.75;1.20;;;11.90;99.90;;;;;;4124069;28;20050;-61
2023/12/24 00:02:21;;;;;;;2.38;1.20;;;11.80;99.90;;;;;;4122147;28;20141;-62
2023/12/24 00:04:24;;;;;;;3.17;1.23;;;11.80;99.90;;;;;;4126144;28;20112;-61
2023/12/24 00:06:26;;;;;;;3.58;1.15;;;11.80;99.90;;;;;;4116408;28;20549;-62
2023/12/24 00:08:31;;;;;;;2.78;1.40;;;11.80;99.90;;;;;;4119735;28;20387;-61
2023/12/24 00:10:35;;;;;;;1.92;1.05;;;11.80;99.90;;;;;;4098714;29;20043;-59
2023/12/24 00:12:38;;;;;;;3.88;2.05;;;11.80;99.90;;;;;;4099113;29;20387;-60
2023/12/24 00:14:41;;;;;;;1.63;1.00;;;11.80;99.90;;;;;;4098998;28;20058;-61
2023/12/24 00:16:43;;;;;;;7.35;2.33;;;11.80;99.90;;;;;;4098494;29;20163;-62
2023/12/24 00:18:45;;;;;;;4.13;1.92;;;11.80;99.90;;;;;;4098779;28;20063;-61
2023/12/24 00:20:47;;;;;;;4.38;0.90;;;11.80;99.90;;;;;;4098692;29;20495;-61
2023/12/24 00:23:04;;;;;;;2.58;1.38;;;11.80;99.90;;;;;;4099187;28;20055;-61
2023/12/24 00:25:06;;;;;;;2.15;0.90;;;11.80;99.90;;;;;;4097704;28;20051;-63
2023/12/24 00:27:08;;;;;;;1.63;1.00;;;11.80;99.90;;;;;;4098012;29;20054;-61
2023/12/24 00:29:10;;;;;;;3.95;1.00;;;11.80;99.90;;;;;;4098308;28;20071;-61
2023/12/24 00:31:14;;;;;;;4.32;0.95;;;11.80;99.90;;;;;;4098920;28;20047;-60
2023/12/24 00:33:16;;;;;;;2.67;0.90;;;11.80;99.90;;;;;;4099063;28;20411;-61
2023/12/24 00:35:18;;;;;;;2.70;1.27;;;11.80;99.90;;;;;;4098266;29;20400;-61
2023/12/24 00:37:20;;;;;;;2.22;1.00;;;11.80;99.90;;;;;;4100249;28;20514;-61
2023/12/24 00:39:22;;;;;;;2.67;1.02;;;11.80;99.90;;;;;;4101507;28;20070;-60
2023/12/24 00:41:25;;;;;;;2.97;1.05;;;11.80;99.90;;;;;;4096156;29;20406;-63
2023/12/24 00:43:27;;;;;;;2.05;1.00;;;11.80;99.90;;;;;;4101976;28;20051;-61
2023/12/24 00:45:29;;;;;;;3.05;1.10;;;11.80;99.90;;;;;;4101939;28;20052;-61
2023/12/24 00:47:33;;;;;;;2.38;1.20;;;11.70;99.90;;;;;;4089476;28;20451;-62
2023/12/24 00:49:35;;;;;;;6.35;1.58;;;11.80;99.90;;;;;;4091191;29;20553;-61
2023/12/24 00:51:41;;;;;;;6.25;2.67;;;11.90;99.90;;;;;;4100187;29;20051;-61
2023/12/24 00:53:43;;;;;;;5.00;2.08;;;11.90;99.90;;;;;;4101535;28;20102;-61
2023/12/24 00:55:46;;;;;;;3.20;1.00;;;11.80;99.90;;;;;;4102275;28;20122;-61
2023/12/24 00:57:48;;;;;;;2.15;1.20;;;11.90;99.90;;;;;;4101728;29;20055;-62
2023/12/24 00:59:50;;;;;;;2.85;1.70;;;11.80;99.90;;;;;;4102220;29;20570;-62
2023/12/24 01:01:52;;;;;;;2.42;1.00;;;11.80;99.90;;;;;;4102277;29;20126;-61
2023/12/24 01:03:56;;;;;;;5.65;1.50;;;11.80;99.90;;;;;;4102313;28;20458;-62
2023/12/24 01:05:58;;;;;;;3.22;2.17;;;11.80;99.90;;;;;;4101851;29;20055;-61
2023/12/24 01:08:00;;;;;;;3.42;1.17;;;11.80;99.90;;;;;;4102082;28;20475;-61
2023/12/24 01:10:03;;;;;;;2.65;1.23;;;11.80;99.90;;;;;;4113773;28;20098;-61
2023/12/24 01:12:06;;;;;;;4.85;1.30;;;11.80;99.90;;;;;;4118070;28;20134;-62
2023/12/24 01:14:09;;;;;;;3.17;1.23;;;11.80;99.90;;;;;;4117935;28;20047;-61
2023/12/24 01:16:11;;;;;;;1.80;0.93;;;11.80;99.90;;;;;;4116837;28;20051;-64
2023/12/24 01:18:13;;;;;;;3.08;1.35;;;11.80;99.90;;;;;;4117684;28;20405;-62
2023/12/24 01:20:17;;;;;;;3.38;1.40;;;11.80;99.90;;;;;;4115550;28;20054;-62
2023/12/24 01:22:19;;;;;;;2.93;1.13;;;11.80;99.90;;;;;;4116150;28;20050;-62
2023/12/24 01:24:21;;;;;;;2.75;1.20;;;11.80;99.90;;;;;;4116360;28;20057;-62
2023/12/24 01:26:23;;;;;;;1.63;1.10;;;11.80;99.90;;;;;;4117707;28;20047;-66
2023/12/24 01:28:25;;;;;;;3.28;1.25;;;11.70;99.90;;;;;;4118014;28;20052;-62
2023/12/24 01:30:27;;;;;;;2.08;1.10;;;11.70;99.90;;;;;;4118159;28;20082;-62
2023/12/24 01:32:29;;;;;;;2.25;0.98;;;11.70;99.90;;;;;;4100602;29;20484;-62
2023/12/24 01:34:31;;;;;;;3.33;1.60;;;11.70;99.90;;;;;;4117364;28;20114;-61
2023/12/24 01:36:37;;;;;;;2.95;1.35;;;11.70;99.90;;;;;;4118252;28;20137;-64
2023/12/24 01:38:39;;;;;;;2.22;1.20;;;11.70;99.90;;;;;;4118205;28;20082;-66
2023/12/24 01:40:46;;;;;;;1.85;0.85;;;11.60;99.90;;;;;;4118598;28;20058;-63
2023/12/24 01:42:47;;;;;;;2.33;1.02;;;11.70;99.90;;;;;;4119150;28;20050;-64
2023/12/24 01:44:50;;;;;;;1.83;1.05;;;11.70;99.90;;;;;;4118031;28;20050;-64
2023/12/24 01:46:52;;;;;;;3.33;1.10;;;11.70;99.90;;;;;;4100170;28;20059;-62
2023/12/24 01:48:56;;;;;;;2.78;0.98;;;11.70;99.90;;;;;;4117019;28;20054;-63
2023/12/24 01:51:01;;;;;;;2.65;1.00;;;11.70;99.90;;;;;;4117915;28;20089;-64
2023/12/24 01:53:05;;;;;;;1.48;0.93;;;11.80;99.90;;;;;;4100116;29;20494;-63
2023/12/24 01:55:08;;;;;;;4.73;1.10;;;11.70;99.90;;;;;;4118224;28;20074;-64
2023/12/24 01:57:11;;;;;;;2.10;0.90;;;11.70;99.90;;;;;;4118304;28;20510;-64
2023/12/24 01:59:14;;;;;;;1.77;0.90;;;11.70;99.90;;;;;;4117928;28;20133;-63
2023/12/24 02:01:16;;;;;;;5.60;0.82;;;11.70;99.90;;;;;;4100489;28;20047;-63
2023/12/24 02:03:20;;;;;;;5.10;1.90;;;11.70;99.90;;;;;;4117669;28;20097;-63
2023/12/24 02:05:22;;;;;;;2.13;0.90;;;11.60;99.90;;;;;;4117375;28;20051;-63
2023/12/24 02:07:26;;;;;;;1.50;0.70;;;11.60;99.90;;;;;;4117471;28;20513;-65
2023/12/24 02:09:29;;;;;;;2.35;0.82;;;11.60;99.90;;;;;;4117149;28;20109;-64
2023/12/24 02:11:31;;;;;;;2.83;1.23;;;11.60;99.90;;;;;;4117520;28;20046;-63
2023/12/24 02:13:34;;;;;;;2.70;0.98;;;11.60;99.90;;;;;;4117435;28;20059;-61
2023/12/24 02:15:36;;;;;;;2.58;1.00;;;11.60;99.90;;;;;;4116366;28;20046;-62
2023/12/24 02:17:40;;;;;;;4.43;1.10;;;11.60;99.90;;;;;;4117604;28;20047;-62
2023/12/24 02:19:42;;;;;;;1.10;0.73;;;11.50;99.90;;;;;;4117417;28;20406;-63
2023/12/24 02:21:47;;;;;;;3.88;1.10;;;11.60;99.90;;;;;;4115856;28;20050;-62
2023/12/24 02:23:50;;;;;;;2.20;0.90;;;11.60;99.90;;;;;;4117214;28;20053;-63
2023/12/24 02:25:56;;;;;;;3.05;1.48;;;11.60;99.90;;;;;;4117711;28;20150;-63
2023/12/24 02:28:06;;;;;;;1.95;1.02;;;11.60;99.90;;;;;;4117593;28;20054;-63
2023/12/24 02:30:14;;;;;;;3.00;2.33;;;11.60;99.90;;;;;;4116942;28;20074;-63
2023/12/24 02:32:18;;;;;;;2.30;1.00;;;11.50;99.90;;;;;;4117057;28;20059;-63
2023/12/24 02:34:21;;;;;;;4.70;1.65;;;11.60;99.90;;;;;;4117126;28;20407;-63
2023/12/24 02:36:25;;;;;;;2.38;0.82;;;11.50;99.90;;;;;;4116623;28;20105;-63
2023/12/24 02:38:28;;;;;;;2.20;1.75;;;11.60;99.90;;;;;;4117211;28;20081;-62
2023/12/24 02:40:31;;;;;;;2.53;1.20;;;11.60;99.90;;;;;;4117102;28;20046;-64
2023/12/24 02:42:33;;;;;;;3.30;1.25;;;11.50;99.90;;;;;;4116926;28;20130;-63
2023/12/24 02:44:35;;;;;;;1.65;1.10;;;11.40;99.90;;;;;;4118441;28;20074;-71
2023/12/24 02:46:38;;;;;;;2.50;1.10;;;11.50;99.90;;;;;;4118285;28;20131;-63
2023/12/24 02:48:40;;;;;;;1.77;1.00;;;11.50;99.90;;;;;;4118265;28;20046;-66
2023/12/24 02:50:42;;;;;;;2.10;1.10;;;11.50;99.90;;;;;;4115612;28;20117;-63
2023/12/24 02:52:44;;;;;;;3.92;1.20;;;11.50;99.90;;;;;;4116871;28;20047;-63
2023/12/24 02:54:48;;;;;;;2.63;0.85;;;11.50;99.90;;;;;;4116978;28;20042;-63
2023/12/24 02:56:50;;;;;;;1.75;0.75;;;11.60;99.90;;;;;;4116706;28;20043;-63
2023/12/24 02:58:52;;;;;;;1.98;0.80;;;11.60;99.90;;;;;;4116764;28;20453;-63
2023/12/24 03:00:56;;;;;;;2.63;1.38;;;11.60;99.90;;;;;;4116054;28;20047;-63
2023/12/24 03:02:58;;;;;;;4.22;1.10;;;11.60;99.90;;;;;;4116525;28;20067;-62
2023/12/24 03:05:01;;;;;;;2.10;1.25;;;11.60;99.90;;;;;;4116048;28;20405;-63
2023/12/24 03:07:04;;;;;;;1.75;0.82;;;11.60;99.90;;;;;;4116313;28;20356;-62
2023/12/24 03:09:06;;;;;;;0.85;0.57;;;11.60;99.90;;;;;;4120771;28;20509;-63
2023/12/24 03:11:09;;;;;;;1.27;1.00;;;11.50;99.90;;;;;;4132519;28;20042;-62
2023/12/24 03:13:11;;;;;;;2.75;1.10;;;11.50;99.90;;;;;;4132523;28;20093;-63
2023/12/24 03:15:13;;;;;;;1.63;0.95;;;11.60;99.90;;;;;;4132511;28;20049;-62
2023/12/24 03:17:15;;;;;;;3.92;0.88;;;11.50;99.90;;;;;;4132412;28;20529;-62
2023/12/24 03:19:17;;;;;;;2.35;1.02;;;11.50;99.90;;;;;;4131969;28;20511;-63
2023/12/24 03:21:20;;;;;;;2.78;1.25;;;11.50;99.90;;;;;;4132481;28;20050;-64
2023/12/24 03:23:22;;;;;;;2.65;1.13;;;11.50;99.90;;;;;;4132435;28;20046;-63
2023/12/24 03:25:24;;;;;;;3.72;1.10;;;11.60;99.90;;;;;;4132381;28;20046;-62
2023/12/24 03:27:27;;;;;;;2.35;1.30;;;11.60;99.90;;;;;;4115290;28;20051;-63
2023/12/24 03:29:30;;;;;;;3.60;1.60;;;11.60;99.90;;;;;;4132254;28;20054;-63
2023/12/24 03:31:32;;;;;;;2.63;1.30;;;11.60;99.90;;;;;;4133869;28;20465;-66
2023/12/24 03:33:34;;;;;;;2.95;0.93;;;11.50;99.90;;;;;;4132683;28;20137;-63
2023/12/24 03:35:36;;;;;;;3.22;0.98;;;11.50;99.90;;;;;;4132991;28;20061;-64
2023/12/24 03:37:38;;;;;;;2.67;0.85;;;11.50;99.90;;;;;;4133174;28;20042;-67
2023/12/24 03:39:40;;;;;;;4.90;1.73;;;11.50;99.90;;;;;;4133311;28;20054;-63
2023/12/24 03:41:42;;;;;;;2.85;1.40;;;11.50;99.90;;;;;;4132369;28;20085;-62
2023/12/24 03:43:46;;;;;;;3.70;1.33;;;11.40;99.90;;;;;;4132133;28;20066;-62
2023/12/24 03:45:48;;;;;;;5.00;1.35;;;11.40;99.90;;;;;;4132054;28;20050;-63
2023/12/24 03:47:50;;;;;;;2.63;1.17;;;11.40;99.90;;;;;;4131655;28;20043;-62
2023/12/24 03:49:52;;;;;;;4.30;1.20;;;11.40;99.90;;;;;;4131769;28;20050;-63
2023/12/24 03:51:54;;;;;;;2.42;1.17;;;11.40;99.90;;;;;;4132256;28;20129;-67
2023/12/24 03:53:58;;;;;;;4.93;1.08;;;11.40;99.90;;;;;;4131972;28;20054;-63
2023/12/24 03:56:01;;;;;;;7.18;1.40;;;11.40;99.90;;;;;;4114565;28;20106;-63
2023/12/24 03:58:03;;;;;;;5.03;1.20;;;11.40;99.90;;;;;;4131979;28;20445;-63
2023/12/24 04:00:08;;;;;;;3.45;1.00;;;11.40;99.90;;;;;;4131653;28;20101;-63
2023/12/24 04:02:10;;;;;;;;;;;11.30;99.90;;;;;;4132080;28;20417;-63
2023/12/24 04:04:12;;;;;;;5.28;1.55;;;11.40;99.90;;;;;;4114900;28;20038;-62
2023/12/24 04:06:16;;;;;;;4.28;1.23;;;11.30;99.90;;;;;;4131773;28;20474;-62
2023/12/24 04:08:18;;;;;;;4.70;1.20;;;11.30;99.90;;;;;;4131745;28;20046;-62
2023/12/24 04:10:20;;;;;;;4.00;1.23;;;11.30;99.90;;;;;;4131529;28;20050;-63
2023/12/24 04:12:22;;;;;;;5.95;1.63;;;11.30;99.90;;;;;;4131176;28;20149;-66
2023/12/24 04:14:25;;;;;;;5.05;1.90;;;11.30;99.90;;;;;;4131887;28;20050;-63
2023/12/24 04:16:28;;;;;;;7.75;1.63;;;11.30;99.90;;;;;;4132230;28;20074;-64
2023/12/24 04:18:30;;;;;;;8.32;1.83;;;11.30;99.90;;;;;;4131837;28;20074;-63
2023/12/24 04:20:32;;;;;;;8.23;1.67;;;11.30;99.90;;;;;;4132438;28;20081;-63
2023/12/24 04:22:34;;;;;;;8.27;1.35;;;11.30;99.90;;;;;;4114599;28;20590;-63
2023/12/24 04:24:36;;;;;;;10.43;1.80;;;11.20;99.90;;;;;;4131737;28;20401;-63
2023/12/24 04:26:39;;;;;;;7.20;1.70;;;11.20;99.90;;;;;;4131487;28;20050;-63
2023/12/24 04:28:41;;;;;;;12.07;2.15;;;11.20;99.90;;;;;;4131498;28;20052;-63
2023/12/24 04:30:43;;;;;;;6.40;1.83;;;11.20;99.90;;;;;;4131751;28;20070;-63
2023/12/24 04:32:47;;;;;;;6.53;1.65;;;11.20;99.90;;;;;;4131331;28;20091;-63
2023/12/24 04:34:49;;;;;;;8.55;2.40;;;11.20;99.90;;;;;;4131490;28;20050;-63
2023/12/24 04:36:52;;;;;;;7.20;1.85;;;11.20;99.90;;;;;;4131732;28;20323;-62
2023/12/24 04:38:55;;;;;;;7.32;1.50;;;11.10;99.90;;;;;;4131961;28;20132;-63
2023/12/24 04:40:57;;;;;;;8.35;2.00;;;11.20;99.90;;;;;;4131874;28;20046;-64
2023/12/24 04:42:59;;;;;;;10.10;2.08;;;11.20;99.90;;;;;;4114905;28;20054;-63
2023/12/24 04:45:01;;;;;;;7.43;1.63;;;11.10;99.90;;;;;;4131930;28;20050;-63
2023/12/24 04:47:03;;;;;;;11.85;2.63;;;11.10;99.90;;;;;;4131367;28;20467;-63
2023/12/24 04:49:08;;;;;;;9.07;2.10;;;11.10;99.90;;;;;;4114067;28;20556;-63
2023/12/24 04:51:11;;;;;;;8.15;2.35;;;11.10;99.90;;;;;;4131819;28;20046;-64
2023/12/24 04:53:13;;;;;;;9.23;2.63;;;11.00;99.90;;;;;;4131750;28;20420;-63
2023/12/24 04:55:16;;;;;;;11.07;2.78;;;10.90;99.90;;;;;;4131430;28;20042;-62
2023/12/24 04:57:18;;;;;;;7.55;1.88;;;11.00;99.90;;;;;;4131455;28;20046;-63
2023/12/24 04:59:20;;;;;;;11.32;2.53;;;11.00;99.90;;;;;;4131483;28;20382;-62
2023/12/24 05:01:22;;;;;;;9.07;2.05;;;11.00;99.90;;;;;;4131332;28;20050;-63
2023/12/24 05:03:24;;;;;;;9.45;2.20;;;11.00;99.90;;;;;;4131592;28;20138;-63
2023/12/24 05:05:28;;;;;;;7.22;1.95;;;11.00;99.90;;;;;;4131523;28;20501;-63
2023/12/24 05:07:30;;;;;;;9.57;2.28;;;11.00;99.90;;;;;;4131258;28;20084;-63
2023/12/24 05:09:33;;;;;;;12.40;2.22;;;11.00;99.90;;;;;;4131343;28;20173;-63
2023/12/24 05:11:35;;;;;;;13.05;2.67;;;10.90;99.90;;;;;;4131309;28;20050;-63
2023/12/24 05:13:37;;;;;;;12.00;2.13;;;10.90;99.90;;;;;;4131769;28;20142;-62
2023/12/24 05:15:39;;;;;;;8.70;2.08;;;10.90;99.90;;;;;;4131703;28;20069;-62
2023/12/24 05:17:41;;;;;;;10.23;2.35;;;10.90;99.90;;;;;;4131899;28;20437;-62
2023/12/24 05:19:43;;;;;;;10.40;2.22;;;10.90;99.90;;;;;;4131964;28;20054;-63
2023/12/24 05:21:46;;;;;;;9.52;2.30;;;10.90;99.90;;;;;;4132598;28;20046;-65
2023/12/24 05:23:48;;;;;;;13.43;2.17;;;10.90;99.90;;;;;;4133452;28;20137;-66
2023/12/24 05:25:50;;;;;;;12.25;2.40;;;10.90;99.90;;;;;;4134417;28;20454;-63
2023/12/24 05:27:53;;;;;;;12.70;2.40;;;10.90;99.90;;;;;;4134076;28;20072;-62
2023/12/24 05:29:55;;;;;;;13.80;2.60;;;10.90;99.90;;;;;;4133705;28;20062;-62
2023/12/24 05:31:57;;;;;;;10.88;2.22;;;11.00;99.90;;;;;;4134105;28;20046;-62
2023/12/24 05:33:59;;;;;;;15.68;3.35;;;11.00;99.90;;;;;;4133999;28;20056;-62
2023/12/24 05:36:02;;;;;;;14.15;2.65;;;10.90;99.90;;;;;;4134200;28;20050;-62
2023/12/24 05:38:06;;;;;;;17.38;2.60;;;11.00;99.90;;;;;;4134018;28;20046;-62
2023/12/24 05:40:09;;;;;;;9.63;2.10;;;11.00;99.90;;;;;;4134316;28;20053;-62
2023/12/24 05:42:11;;;;;;;11.95;2.95;;;11.00;99.90;;;;;;4134366;28;20046;-62
2023/12/24 05:44:13;;;;;;;16.15;3.08;;;11.00;99.90;;;;;;4133755;28;20640;-61
2023/12/24 05:46:16;;;;;;;14.70;2.90;;;11.10;99.90;;;;;;4134330;28;20058;-62
2023/12/24 05:48:18;;;;;;;13.27;3.03;;;11.10;99.90;;;;;;4134170;28;20042;-62
2023/12/24 05:50:20;;;;;;;14.00;2.75;;;11.10;99.90;;;;;;4133837;28;20054;-62
2023/12/24 05:52:27;;;;;;;15.55;3.35;;;11.10;99.90;;;;;;4135685;28;20390;-61
2023/12/24 05:54:30;;;;;;;12.23;3.05;;;11.10;99.90;;;;;;4135513;28;20108;-61
2023/12/24 05:56:32;;;;;;;9.48;2.72;;;11.10;99.90;;;;;;4135998;28;20406;-65
2023/12/24 05:58:34;;;;;;;19.10;3.92;;;11.10;99.90;;;;;;4133551;28;20050;-60
2023/12/24 06:00:36;;;;;;;17.83;3.45;;;11.10;99.90;;;;;;4133918;28;20065;-63
2023/12/24 06:02:38;;;;;;;16.40;3.38;;;11.10;99.90;;;;;;4133887;28;20046;-60
2023/12/24 06:04:40;;;;;;;21.95;4.93;;;11.10;99.90;;;;;;4133931;28;20046;-60
2023/12/24 06:06:43;;;;;;;12.32;2.97;;;11.10;99.90;;;;;;4133708;28;20484;-60
2023/12/24 06:08:45;;;;;;;15.00;3.08;;;11.10;99.90;;;;;;4133494;28;20302;-60
2023/12/24 06:10:48;;;;;;;13.18;3.38;;;11.10;99.90;;;;;;4133771;28;20489;-60
2023/12/24 06:12:53;;;;;;;15.05;3.45;;;11.10;99.90;;;;;;4115649;28;20577;-60
2023/12/24 06:14:57;;;;;;;15.75;3.20;;;11.10;99.90;;;;;;4133388;28;20050;-60
2023/12/24 06:16:59;;;;;;;15.57;3.10;;;11.10;99.90;;;;;;4133621;28;20134;-59
2023/12/24 06:19:01;;;;;;;18.13;3.78;;;11.10;99.90;;;;;;4116327;28;20477;-59
2023/12/24 06:21:04;;;;;;;16.20;2.90;;;11.10;99.90;;;;;;4134240;28;20340;-60
2023/12/24 06:23:06;;;;;;;16.85;3.28;;;11.10;99.90;;;;;;4117364;28;20055;-62
2023/12/24 06:25:08;;;;;;;17.13;4.30;;;11.10;99.90;;;;;;4134680;28;20050;-66
2023/12/24 06:27:11;;;;;;;15.38;2.90;;;11.10;99.90;;;;;;4133686;28;20053;-62
2023/12/24 06:29:13;;;;;;;10.35;2.53;;;11.20;99.90;;;;;;4116291;28;20530;-63
2023/12/24 06:31:20;;;;;;;19.55;3.00;;;11.20;99.90;;;;;;4133244;28;20050;-60
2023/12/24 06:33:22;;;;;;;14.95;3.28;;;11.20;99.90;;;;;;4133272;28;20057;-61
2023/12/24 06:35:25;;;;;;;13.98;3.13;;;11.20;99.90;;;;;;4133234;28;20046;-60
2023/12/24 06:37:27;;;;;;;15.27;2.65;;;11.20;99.90;;;;;;4099808;28;20066;-60
2023/12/24 06:39:29;;;;;;;16.67;2.88;;;11.20;99.90;;;;;;4133088;28;20513;-60
2023/12/24 06:41:31;;;;;;;17.67;3.40;;;11.30;99.90;;;;;;4132625;28;20051;-60
2023/12/24 06:43:35;;;;;;;15.02;3.22;;;11.30;99.90;;;;;;4132854;28;20221;-60
2023/12/24 06:45:37;;;;;;;15.55;3.50;;;11.30;99.90;;;;;;4133107;28;20118;-61
2023/12/24 06:47:39;;;;;;;16.20;3.42;;;11.30;99.90;;;;;;4133207;28;20089;-60
2023/12/24 06:49:44;;;;;;;13.38;3.05;;;11.30;99.90;;;;;;4132967;28;20191;-60
2023/12/24 06:51:46;;;;;;;13.70;3.50;;;11.30;99.90;;;;;;4116210;28;20058;-60
2023/12/24 06:53:48;;;;;;;16.48;3.20;;;11.30;99.90;;;;;;4133315;28;20046;-63
2023/12/24 06:55:50;;;;;;;16.42;3.25;;;11.20;99.90;;;;;;4133043;28;20112;-60
2023/12/24 06:57:53;;;;;;;18.17;3.70;;;11.20;99.90;;;;;;4133092;28;20054;-60
2023/12/24 06:59:56;;;;;;;12.52;2.85;;;11.30;99.90;;;;;;4116198;28;20046;-65
2023/12/24 07:01:58;;;;;;;15.38;3.03;;;11.20;99.90;;;;;;4133509;28;20042;-60
2023/12/24 07:04:00;;;;;;;17.02;3.33;;;11.30;99.90;;;;;;4133633;28;20493;-62
2023/12/24 07:06:03;;;;;;;12.15;2.92;;;11.30;99.90;;;;;;4133415;28;20043;-67
2023/12/24 07:08:07;;;;;;;16.35;3.85;;;11.30;99.90;;;;;;4116254;28;20101;-60
2023/12/24 07:10:09;;;;;;;19.15;3.40;;;11.30;99.90;;;;;;4133437;28;20112;-62
2023/12/24 07:12:11;;;;;;;12.07;3.17;;;11.20;99.90;;;;;;4133399;28;20506;-62
2023/12/24 07:14:13;;;;;;;13.57;3.13;;;11.20;99.90;;;;;;4132958;28;20185;-61
2023/12/24 07:16:19;;;;;;;17.27;3.13;;;11.20;99.90;;;;;;4132768;28;20042;-61
2023/12/24 07:18:21;;;;;;;20.80;4.15;;;11.30;99.90;;;;;;4132324;28;20129;-61
2023/12/24 07:20:24;;;;;;;9.55;2.25;;;11.30;99.90;;;;;;4132434;28;20066;-61
2023/12/24 07:22:26;;;;;;;16.13;3.33;;;11.20;99.90;;;;;;4115284;28;20490;-61
2023/12/24 07:24:28;;;;;;;11.32;2.63;;;11.30;99.90;;;;;;4132204;28;20055;-60
2023/12/24 07:26:30;;;;;;;15.95;3.15;;;11.30;99.90;;;;;;4131830;28;20133;-61
2023/12/24 07:28:32;;;;;;;19.30;3.95;;;11.30;99.90;;;;;;4132352;28;20413;-61
2023/12/24 07:30:34;;;;;;;22.25;3.42;;;11.40;99.90;;;;;;4132082;28;20046;-60
2023/12/24 07:32:42;;;;;;;20.63;3.53;;;11.40;99.90;;;;;;4132177;28;20087;-61
2023/12/24 07:34:45;;;;;;;16.45;2.88;;;11.30;99.90;;;;;;4132246;28;20085;-61
2023/12/24 07:36:46;;;;;;;14.35;2.90;;;11.30;99.90;;;;;;4132282;28;20042;-61
2023/12/24 07:38:48;;;;;;;15.18;3.05;;;11.30;99.90;;;;;;4132137;28;20042;-61
2023/12/24 07:40:50;;;;;;;15.38;3.47;;;11.30;99.90;;;;;;4131837;28;20046;-61
2023/12/24 07:42:52;;;;;;;17.98;4.10;;;11.30;99.90;;;;;;4132212;28;20046;-61
2023/12/24 07:44:55;;;;;;;20.45;4.28;;;11.30;99.90;;;;;;4131985;28;20046;-64
2023/12/24 07:46:58;;;;;;;15.60;3.63;;;11.30;99.90;;;;;;4114424;28;20047;-60
2023/12/24 07:49:01;;;;;;;13.43;3.33;;;11.40;99.90;;;;;;4132102;28;20050;-61
2023/12/24 07:51:03;;;;;;;19.10;3.70;;;11.40;99.90;;;;;;4132037;28;20729;-61
2023/12/24 07:53:06;;;;;;;20.23;4.70;;;11.40;99.90;;;;;;4132062;28;20050;-61
2023/12/24 07:55:08;;;;;;;18.40;3.55;;;11.40;99.90;;;;;;4131577;28;20486;-62
2023/12/24 07:57:10;;;;;;;16.83;3.35;;;11.40;99.90;;;;;;4132029;28;20049;-61
2023/12/24 07:59:12;;;;;;;13.82;3.42;;;11.40;99.90;;;;;;4131754;28;20050;-61
2023/12/24 08:01:15;;;;;;;17.38;3.22;;;11.40;99.90;;;;;;4132073;28;20433;-60
2023/12/24 08:03:17;;;;;;;20.00;3.60;;;11.40;99.90;;;;;;4131876;28;20046;-61
2023/12/24 08:05:20;;;;;;;16.98;3.55;;;11.40;99.90;;;;;;4132060;28;20042;-63
2023/12/24 08:07:23;;;;;;;16.77;3.67;;;11.40;99.90;;;;;;4114608;28;20047;-62
2023/12/24 08:09:28;;;;;;;18.05;3.72;;;11.40;99.90;;;;;;4114226;28;20126;-63
2023/12/24 08:11:30;;;;;;;17.52;3.33;;;11.40;99.90;;;;;;4131765;28;20047;-62
2023/12/24 08:13:32;;;;;;;12.93;3.05;;;11.40;99.90;;;;;;4131647;28;20540;-62
2023/12/24 08:15:34;;;;;;;18.08;3.60;;;11.40;99.90;;;;;;4098254;29;20055;-64
2023/12/24 08:17:37;;;;;;;19.27;3.75;;;11.40;99.90;;;;;;4131983;28;20051;-63
2023/12/24 08:19:40;;;;;;;18.65;3.85;;;11.40;99.90;;;;;;4131795;28;20152;-62
2023/12/24 08:21:43;;;;;;;18.85;3.97;;;11.40;99.90;;;;;;4131815;28;20042;-63
2023/12/24 08:23:45;;;;;;;17.30;3.08;;;11.40;99.90;;;;;;4131324;28;20048;-62
2023/12/24 08:25:47;;;;;;;17.13;3.15;;;11.50;99.90;;;;;;4131660;28;20050;-62
2023/12/24 08:27:49;;;;;;;16.40;3.40;;;11.50;99.90;;;;;;4131773;28;20458;-63
2023/12/24 08:29:51;;;;;;;15.70;3.97;;;11.50;99.90;;;;;;4132071;28;20434;-68
2023/12/24 08:31:55;;;;;;;17.13;3.50;;;11.40;99.90;;;;;;4132157;28;20053;-64
2023/12/24 08:33:57;;;;;;;17.40;3.03;;;11.50;99.90;;;;;;4132242;28;20141;-65
2023/12/24 08:36:00;;;;;;;16.45;2.97;;;11.50;99.90;;;;;;4132401;28;20481;-65
2023/12/24 08:38:03;;;;;;;21.02;3.80;;;11.50;99.90;;;;;;4131750;28;20456;-62
2023/12/24 08:40:07;;;;;;;13.40;3.22;;;11.50;99.90;;;;;;4131923;28;20206;-63
2023/12/24 08:42:09;;;;;;;21.67;4.00;;;11.60;99.90;;;;;;4132042;28;20043;-66
2023/12/24 08:44:12;;;;;;;13.77;3.58;;;11.60;99.90;;;;;;4131539;28;20054;-63
2023/12/24 08:46:14;;;;;;;18.17;3.15;;;11.60;99.90;;;;;;4131689;28;20510;-63
2023/12/24 08:48:16;;;;;;;15.30;3.40;;;11.70;99.90;;;;;;4131576;28;20042;-63
2023/12/24 08:50:18;;;;;;;15.98;3.30;;;11.60;99.90;;;;;;4131677;28;20049;-64
2023/12/24 08:52:21;;;;;;;14.32;3.58;;;11.70;99.90;;;;;;4114044;28;20343;-63
2023/12/24 08:54:24;;;;;;;15.30;2.88;;;11.70;99.90;;;;;;4114526;28;20047;-62
2023/12/24 08:56:27;;;;;;;16.10;3.58;;;11.70;99.90;;;;;;4131740;28;20046;-63
2023/12/24 08:58:30;;;;;;;18.60;3.58;;;11.70;99.90;;;;;;4132905;28;20486;-63
2023/12/24 09:00:32;;;;;;;13.70;3.33;;;11.60;99.90;;;;;;4117807;28;20129;-65
2023/12/24 09:02:34;;;;;;;15.82;3.67;;;11.70;99.90;;;;;;4135599;28;20101;-65
2023/12/24 09:04:36;;;;;;;14.13;3.05;;;11.60;99.90;;;;;;4135136;28;20497;-67
2023/12/24 09:06:38;;;;;;;19.75;4.10;;;11.70;99.90;;;;;;4134664;28;20466;-63
2023/12/24 09:08:41;;;;;;;14.52;3.25;;;11.70;99.90;;;;;;4134324;28;20053;-63
2023/12/24 09:10:44;;;;;;;17.35;3.67;;;11.70;99.90;;;;;;4134571;28;20485;-63
2023/12/24 09:12:46;;;;;;;18.60;3.58;;;11.80;99.90;;;;;;4134236;28;20453;-63
2023/12/24 09:14:48;;;;;;;20.33;4.13;;;11.70;99.90;;;;;;4134418;28;20050;-63
2023/12/24 09:16:51;;;;;;;18.58;3.95;;;11.70;99.90;;;;;;4134200;28;20532;-63
2023/12/24 09:18:53;;;;;;;21.33;4.43;;;11.80;99.90;;;;;;4116599;28;20413;-62
2023/12/24 09:20:55;;;;;;;13.70;3.17;;;11.80;99.90;;;;;;4134103;28;20050;-65
2023/12/24 09:22:57;;;;;;;13.75;2.85;;;11.90;99.90;;;;;;4133955;28;20170;-63
2023/12/24 09:25:00;;;;;;;17.88;3.35;;;12.00;99.90;;;;;;4134102;28;20057;-62
2023/12/24 09:27:04;;;;;;;16.08;3.08;;;12.00;99.90;;;;;;4134336;28;20050;-63
2023/12/24 09:29:06;;;;;;;16.73;3.30;;;12.00;99.90;;;;;;4134144;28;20058;-63
2023/12/24 09:31:08;;;;;;;16.30;3.90;;;12.00;99.90;;;;;;4134196;28;20497;-63
2023/12/24 09:33:10;;;;;;;15.77;3.10;;;12.00;99.90;;;;;;4116878;28;20042;-62
2023/12/24 09:35:13;;;;;;;18.73;3.60;;;12.00;99.90;;;;;;4134027;28;20552;-63
2023/12/24 09:37:15;;;;;;;14.35;2.80;;;12.00;99.90;;;;;;4133478;28;20097;-62
2023/12/24 09:39:17;;;;;;;17.13;3.33;;;12.10;99.90;;;;;;4133931;28;20081;-63
2023/12/24 09:41:19;;;;;;;17.73;3.92;;;12.10;99.90;;;;;;4133930;28;20129;-63
2023/12/24 09:43:24;;;;;;;14.55;3.97;;;12.10;99.90;;;;;;4134014;28;20074;-63
2023/12/24 09:45:27;;;;;;;19.90;3.50;;;12.10;99.90;;;;;;4133953;28;20046;-63
2023/12/24 09:47:31;;;;;;;;;;;12.20;99.90;;;;;;4134568;28;20391;-62
2023/12/24 09:49:33;;;;;;;16.60;3.05;;;12.20;99.90;;;;;;4133867;28;19944;-62
2023/12/24 09:51:37;;;;;;;13.18;3.28;;;12.20;99.90;;;;;;4116280;28;20155;-63
2023/12/24 09:53:44;;;;;;;18.38;3.92;;;12.20;99.90;;;;;;4133751;28;20050;-63
2023/12/24 09:55:46;;;;;;;16.98;3.45;;;12.20;99.90;;;;;;4133570;28;20057;-63
2023/12/24 09:57:48;;;;;;;16.58;3.63;;;12.20;99.90;;;;;;4133423;28;20413;-63
2023/12/24 09:59:51;;;;;;;15.43;3.80;;;12.30;99.90;;;;;;4133847;28;20066;-63
2023/12/24 10:01:54;;;;;;;19.65;3.47;;;12.30;99.90;;;;;;4133575;28;20073;-63
2023/12/24 10:03:56;;;;;;;12.50;3.47;;;12.30;99.90;;;;;;4133516;28;20476;-63
2023/12/24 10:05:59;;;;;;;18.35;4.30;;;12.30;99.90;;;;;;4116155;28;20046;-63
2023/12/24 10:08:03;;;;;;;16.58;3.17;;;12.40;99.90;;;;;;4133617;28;20050;-63
2023/12/24 10:10:07;;;;;;;15.80;3.53;;;12.40;99.90;;;;;;4132991;28;20050;-63
2023/12/24 10:12:09;;;;;;;14.00;3.10;;;12.40;99.90;;;;;;4133320;28;20141;-63
2023/12/24 10:14:12;;;;;;;19.00;3.80;;;12.40;99.90;;;;;;4133430;28;20046;-63
2023/12/24 10:16:16;;;;;;;18.73;4.57;;;12.50;99.90;;;;;;4133775;28;20057;-62
2023/12/24 10:18:19;;;;;;;19.70;3.72;;;12.40;99.90;;;;;;4100093;28;20051;-63
2023/12/24 10:20:22;;;;;;;19.90;4.15;;;12.50;99.90;;;;;;4133142;28;20125;-62
2023/12/24 10:22:24;;;;;;;13.40;3.70;;;12.40;99.90;;;;;;4133463;28;20053;-62
2023/12/24 10:24:27;;;;;;;13.10;3.25;;;12.40;99.90;;;;;;4133519;28;20068;-63
2023/12/24 10:26:29;;;;;;;17.45;3.47;;;12.50;99.90;;;;;;4133360;28;20038;-63
2023/12/24 10:28:32;;;;;;;21.25;4.20;;;12.50;99.90;;;;;;4133107;28;20046;-62
2023/12/24 10:30:35;;;;;;;16.85;3.65;;;12.50;99.90;;;;;;4133119;28;20050;-62
2023/12/24 10:32:38;;;;;;;14.95;3.25;;;12.60;99.90;;;;;;4115840;28;20074;-63
2023/12/24 10:34:41;;;;;;;15.93;3.20;;;12.60;99.90;;;;;;4132844;28;20496;-63